Time;durP1;ratioP1;P1;durP2;ratioP2;P2;SDS_P1;SDS_P2;PMS_P1;PMS_P2;Temp;Humidity;BMP_temperature;BMP_pressure;BME280_temperature;BME280_humidity;BME280_pressure;Samples;Min_cycle;Max_cycle;Signal;HPM_P1;HPM_P2
2022/04/02 00:00:40;;;;;;;;;;;;;;;4.52;66.16;98025.31;4369477;32;32764;-84
2022/04/02 00:03:29;;;;;;;;;;;;;;;4.50;66.43;98024.63;4376475;32;34624;-84
2022/04/02 00:06:00;;;;;;;;;;;;;;;4.50;66.50;98028.09;4375576;32;34078;-84
2022/04/02 00:08:51;;;;;;;;;;;;;;;4.89;65.21;98031.28;4374698;32;33734;-83
2022/04/02 00:11:33;;;;;;;;;;;;;;;4.60;65.64;98030.66;4398979;32;34109;-84
2022/04/02 00:14:38;;;;;;;;;;;;;;;4.87;65.25;98033.19;4381410;32;34662;-85
2022/04/02 00:17:28;;;;;;;;;;;;;;;4.77;64.93;98022.75;4375439;32;34109;-83
2022/04/02 00:20:00;;;;;;;;;;;;;;;4.78;64.94;98042.84;4376290;32;33980;-83
2022/04/02 00:22:35;;;;;;;;;;;;;;;4.61;65.67;98050.75;4391780;32;33458;-84
2022/04/02 00:25:11;;;;;;;;;;;;;;;4.87;64.91;98041.09;4376208;32;36222;-85
2022/04/02 00:27:54;;;;;;;;;;;;;;;4.37;65.95;98024.16;4384408;32;34303;-84
2022/04/02 00:30:57;;;;;;;;;;;;;;;4.54;65.44;98012.81;4379438;32;33540;-84
2022/04/02 00:33:43;;;;;;;;;;;;;;;4.53;65.42;97998.00;4378760;32;35158;-84
2022/04/02 00:36:34;;;;;;;;;;;;;;;4.35;65.95;98003.25;4398405;32;35501;-85
2022/04/02 00:39:22;;;;;;;;;;;;;;;4.53;65.37;98004.09;4381676;32;33689;-84
2022/04/02 00:41:50;;;;;;;;;;;;;;;4.42;65.34;97995.59;4377877;32;32685;-84
2022/04/02 00:44:18;;;;;;;;;;;;;;;4.64;65.01;97995.94;4376337;32;32985;-85
2022/04/02 00:47:06;;;;;;;;;;;;;;;4.83;64.57;97990.53;4386682;32;34502;-84
2022/04/02 00:49:37;;;;;;;;;;;;;;;4.89;64.12;97995.19;4388583;32;34403;-86
2022/04/02 00:52:09;;;;;;;;;;;;;;;4.63;64.67;97993.50;4377209;32;32962;-85
2022/04/02 00:54:40;;;;;;;;;;;;;;;4.97;63.61;97992.62;4370156;32;32913;-84
2022/04/02 00:57:15;;;;;;;;;;;;;;;4.80;63.85;97997.94;4377661;32;35216;-85
2022/04/02 00:59:58;;;;;;;;;;;;;;;4.86;63.47;98000.78;4379969;32;34992;-83
2022/04/02 01:02:46;;;;;;;;;;;;;;;4.83;63.86;98005.53;4384617;32;32594;-84
2022/04/02 01:05:24;;;;;;;;;;;;;;;4.75;64.06;98003.66;4382480;32;33146;-83
2022/04/02 01:07:55;;;;;;;;;;;;;;;4.63;64.20;98001.41;4386971;32;35719;-83
2022/04/02 01:10:39;;;;;;;;;;;;;;;4.33;65.30;98004.41;4384505;32;34906;-84
2022/04/02 01:13:27;;;;;;;;;;;;;;;4.29;65.03;98010.91;4374949;32;33315;-84
2022/04/02 01:16:16;;;;;;;;;;;;;;;4.05;65.66;98016.75;4380833;32;34072;-83
2022/04/02 01:18:48;;;;;;;;;;;;;;;3.89;65.89;98019.16;4369177;32;33972;-84
2022/04/02 01:21:21;;;;;;;;;;;;;;;3.76;66.17;98031.84;4382656;32;32900;-83
2022/04/02 01:23:58;;;;;;;;;;;;;;;4.07;65.27;98030.56;4391837;32;33610;-85
2022/04/02 01:26:46;;;;;;;;;;;;;;;3.75;66.69;98031.97;4377985;32;34768;-83
2022/04/02 01:29:18;;;;;;;;;;;;;;;3.97;66.03;98035.06;4377583;32;35241;-84
2022/04/02 01:32:06;;;;;;;;;;;;;;;4.00;65.59;98040.03;4374565;32;34416;-86
2022/04/02 01:34:38;;;;;;;;;;;;;;;3.70;66.11;98048.19;4381661;32;32652;-86
2022/04/02 01:37:16;;;;;;;;;;;;;;;3.76;66.12;98049.41;4386932;32;34193;-87
2022/04/02 01:40:20;;;;;;;;;;;;;;;4.08;65.06;98049.81;4376830;32;35479;-84
2022/04/02 01:43:00;;;;;;;;;;;;;;;3.87;65.35;98051.88;3961938;26;34592;-83
2022/04/02 01:45:28;;;;;;;;;;;;;;;4.08;64.81;98050.63;4427669;32;30685;-88
2022/04/02 01:47:56;;;;;;;;;;;;;;;4.16;64.75;98049.94;4402607;32;33856;-84
2022/04/02 01:50:25;;;;;;;;;;;;;;;4.37;63.79;98045.22;4429717;32;35459;-85
2022/04/02 01:52:53;;;;;;;;;;;;;;;4.45;63.51;98048.75;4429842;32;35009;-86
2022/04/02 01:55:20;;;;;;;;;;;;;;;4.36;63.85;98051.47;4403416;32;32648;-88
2022/04/02 01:57:48;;;;;;;;;;;;;;;4.37;63.62;98061.03;4429707;32;33540;-85
2022/04/02 02:00:17;;;;;;;;;;;;;;;4.50;62.96;98067.59;4427099;32;35141;-84
2022/04/02 02:02:45;;;;;;;;;;;;;;;4.67;62.56;98058.88;4427597;32;34050;-86
2022/04/02 02:05:13;;;;;;;;;;;;;;;4.35;63.06;98060.34;4428547;32;33019;-90
2022/04/02 02:07:47;;;;;;;;;;;;;;;4.69;62.32;98058.72;4427253;32;33388;-84
2022/04/02 02:10:18;;;;;;;;;;;;;;;4.87;61.70;98060.38;4415281;32;35160;-83
2022/04/02 02:12:50;;;;;;;;;;;;;;;4.97;61.68;98063.78;4416794;32;35192;-86
2022/04/02 02:15:18;;;;;;;;;;;;;;;5.05;61.46;98070.91;4429593;32;34029;-86
2022/04/02 02:17:48;;;;;;;;;;;;;;;4.96;61.09;98070.03;4417368;32;33431;-84
2022/04/02 02:20:16;;;;;;;;;;;;;;;4.97;61.13;98074.31;4416993;32;36098;-88
2022/04/02 02:22:44;;;;;;;;;;;;;;;4.93;61.17;98077.41;4416634;32;33364;-85
2022/04/02 02:25:13;;;;;;;;;;;;;;;4.99;61.20;98077.63;4416679;32;31901;-88
2022/04/02 02:27:42;;;;;;;;;;;;;;;4.96;61.42;98077.09;4430788;32;34766;-86
2022/04/02 02:30:11;;;;;;;;;;;;;;;5.40;59.35;98074.34;4416315;32;34431;-85
2022/04/02 02:32:39;;;;;;;;;;;;;;;5.12;60.24;98079.87;4428713;32;34155;-85
2022/04/02 02:38:01;;;;;;;;;;;;;;;4.96;61.40;98075.28;4429471;32;34060;-86
2022/04/02 02:40:32;;;;;;;;;;;;;;;4.90;61.39;98075.06;4431029;32;34956;-85
2022/04/02 02:43:01;;;;;;;;;;;;;;;5.22;60.62;98075.34;4416749;32;34368;-87
2022/04/02 02:45:31;;;;;;;;;;;;;;;4.87;61.56;98072.72;4414347;32;33076;-88
2022/04/02 02:47:59;;;;;;;;;;;;;;;5.18;60.81;98068.75;4415648;32;33855;-91
2022/04/02 02:50:33;;;;;;;;;;;;;;;5.11;60.64;98068.53;4416701;32;35062;-85
2022/04/02 02:53:02;;;;;;;;;;;;;;;4.99;61.61;98074.97;4414836;32;33602;-85
2022/04/02 02:55:29;;;;;;;;;;;;;;;4.97;61.28;98081.37;4427499;32;33595;-85
2022/04/02 02:57:58;;;;;;;;;;;;;;;5.06;61.57;98091.00;4415671;32;33942;-84
2022/04/02 03:00:26;;;;;;;;;;;;;;;4.71;62.29;98088.37;4413882;32;33893;-85
2022/04/02 03:02:55;;;;;;;;;;;;;;;4.88;61.89;98098.94;4426343;32;34690;-85
2022/04/02 03:05:23;;;;;;;;;;;;;;;5.11;61.22;98088.75;4426841;32;33847;-85
2022/04/02 03:07:52;;;;;;;;;;;;;;;4.84;61.90;98094.09;4413785;32;34212;-85
2022/04/02 03:10:22;;;;;;;;;;;;;;;4.80;61.93;98090.94;4413640;32;33864;-85
2022/04/02 03:12:51;;;;;;;;;;;;;;;4.67;62.45;98095.75;4413256;32;35876;-84
2022/04/02 03:15:19;;;;;;;;;;;;;;;4.82;61.89;98101.34;4414145;32;33241;-88
2022/04/02 03:17:48;;;;;;;;;;;;;;;4.93;61.22;98093.22;4415332;32;33354;-86
2022/04/02 03:20:17;;;;;;;;;;;;;;;5.00;61.25;98097.72;4413945;32;33992;-84
2022/04/02 03:22:46;;;;;;;;;;;;;;;4.65;62.12;98092.44;4400611;32;34791;-86
2022/04/02 03:25:14;;;;;;;;;;;;;;;4.88;61.63;98100.72;4415204;32;32761;-85
2022/04/02 03:27:43;;;;;;;;;;;;;;;4.97;61.33;98098.03;4413942;32;33502;-85
2022/04/02 03:30:11;;;;;;;;;;;;;;;4.69;62.38;98111.37;4388067;32;35046;-90
2022/04/02 03:32:39;;;;;;;;;;;;;;;4.84;61.90;98116.03;4413867;32;34756;-86
2022/04/02 03:35:08;;;;;;;;;;;;;;;5.02;61.51;98114.22;4413876;32;32733;-86
2022/04/02 03:37:37;;;;;;;;;;;;;;;4.84;61.17;98110.75;4415139;32;34775;-84
2022/04/02 03:40:07;;;;;;;;;;;;;;;4.73;61.61;98112.78;4426852;32;34976;-85
2022/04/02 03:42:36;;;;;;;;;;;;;;;4.78;61.20;98113.13;4414469;32;34865;-86
2022/04/02 03:45:04;;;;;;;;;;;;;;;4.99;60.37;98113.69;4393874;32;33360;-86
2022/04/02 03:47:31;;;;;;;;;;;;;;;5.10;60.00;98111.66;4418068;32;33321;-85
2022/04/02 03:50:00;;;;;;;;;;;;;;;5.06;60.33;98115.56;4409334;32;34744;-86
2022/04/02 03:52:29;;;;;;;;;;;;;;;5.15;60.09;98113.81;4408289;32;34108;-85
2022/04/02 03:54:58;;;;;;;;;;;;;;;5.21;59.95;98121.13;4410088;32;33879;-89
2022/04/02 03:57:27;;;;;;;;;;;;;;;5.16;59.93;98113.69;4403784;32;34523;-88
2022/04/02 03:59:55;;;;;;;;;;;;;;;5.22;59.84;98113.09;4407693;32;34848;-85
2022/04/02 04:02:23;;;;;;;;;;;;;;;5.22;59.93;98105.19;4405461;32;34609;-85
2022/04/02 04:04:52;;;;;;;;;;;;;;;5.09;60.28;98099.44;4420691;32;33546;-88
2022/04/02 04:07:20;;;;;;;;;;;;;;;5.11;60.13;98097.50;4415676;32;34604;-87
2022/04/02 04:09:47;;;;;;;;;;;;;;;4.94;60.78;98105.41;4421638;32;34931;-86
2022/04/02 04:12:17;;;;;;;;;;;;;;;4.99;60.77;98097.88;4404824;32;33821;-85
2022/04/02 04:14:45;;;;;;;;;;;;;;;4.91;61.00;98093.34;4405535;32;33928;-85
2022/04/02 04:17:13;;;;;;;;;;;;;;;5.05;60.62;98092.00;4405341;32;32209;-85
2022/04/02 04:19:40;;;;;;;;;;;;;;;5.02;60.60;98105.47;4420673;32;35164;-85
2022/04/02 04:22:10;;;;;;;;;;;;;;;4.77;61.76;98109.69;4406473;32;35008;-86
2022/04/02 04:24:38;;;;;;;;;;;;;;;4.96;60.95;98109.56;4401057;32;33371;-86
2022/04/02 04:27:07;;;;;;;;;;;;;;;4.87;61.03;98109.59;4417868;32;34550;-85
2022/04/02 04:29:36;;;;;;;;;;;;;;;4.92;60.80;98115.28;4407729;32;35203;-86
2022/04/02 04:32:04;;;;;;;;;;;;;;;4.72;61.70;98116.38;4405721;32;34046;-85
2022/04/02 04:34:33;;;;;;;;;;;;;;;4.41;62.69;98110.59;4406099;32;32887;-84
2022/04/02 04:37:00;;;;;;;;;;;;;;;4.70;61.80;98115.72;4405018;32;33431;-89
2022/04/02 04:39:28;;;;;;;;;;;;;;;4.67;61.63;98121.25;4403379;32;35308;-85
2022/04/02 04:41:56;;;;;;;;;;;;;;;4.86;60.99;98124.59;4408073;32;35184;-85
2022/04/02 04:44:25;;;;;;;;;;;;;;;4.88;60.79;98121.78;4419824;32;32571;-85
2022/04/02 04:46:53;;;;;;;;;;;;;;;4.58;61.36;98130.03;4416438;32;33967;-86
2022/04/02 04:49:21;;;;;;;;;;;;;;;4.58;61.73;98130.88;4403392;32;33590;-89
2022/04/02 04:51:49;;;;;;;;;;;;;;;4.49;61.98;98133.56;4402851;32;34407;-88
2022/04/02 04:54:16;;;;;;;;;;;;;;;4.35;62.47;98128.78;4415697;32;32942;-86
2022/04/02 04:56:45;;;;;;;;;;;;;;;4.72;61.64;98137.47;4415572;32;33956;-85
2022/04/02 04:59:12;;;;;;;;;;;;;;;4.56;62.19;98129.38;4428145;32;35926;-85
2022/04/02 05:01:40;;;;;;;;;;;;;;;4.56;62.15;98129.38;4416031;32;34858;-87
2022/04/02 05:04:08;;;;;;;;;;;;;;;4.82;61.66;98128.50;4428468;32;33811;-87
2022/04/02 05:06:38;;;;;;;;;;;;;;;4.81;61.62;98129.47;4429794;32;34417;-90
2022/04/02 05:09:06;;;;;;;;;;;;;;;4.82;61.47;98132.94;4390332;32;33684;-86
2022/04/02 05:11:34;;;;;;;;;;;;;;;4.60;61.84;98134.19;4414606;32;34876;-89
2022/04/02 05:14:05;;;;;;;;;;;;;;;4.63;61.95;98136.50;4402816;32;32492;-89
2022/04/02 05:16:33;;;;;;;;;;;;;;;4.81;61.71;98133.94;4428071;32;32452;-86
2022/04/02 05:19:02;;;;;;;;;;;;;;;4.75;62.02;98140.63;4403007;32;34373;-86
2022/04/02 05:21:33;;;;;;;;;;;;;;;4.93;61.71;98145.91;4428018;32;34056;-87
2022/04/02 05:24:00;;;;;;;;;;;;;;;5.12;61.18;98154.53;4429712;32;32811;-90
2022/04/02 05:26:29;;;;;;;;;;;;;;;5.03;61.29;98158.06;4428343;32;33777;-86
2022/04/02 05:28:57;;;;;;;;;;;;;;;4.83;61.90;98160.94;4429585;32;34813;-86
2022/04/02 05:31:26;;;;;;;;;;;;;;;4.98;61.30;98159.47;4428980;32;34760;-87
2022/04/02 05:33:54;;;;;;;;;;;;;;;5.00;61.34;98158.31;4429392;32;32900;-88
2022/04/02 05:36:24;;;;;;;;;;;;;;;4.98;61.66;98162.13;4430183;32;33735;-88
2022/04/02 05:38:52;;;;;;;;;;;;;;;5.19;61.32;98160.81;4415826;32;34456;-92
2022/04/02 05:41:19;;;;;;;;;;;;;;;5.31;60.86;98158.78;4430016;32;33752;-87
2022/04/02 05:43:47;;;;;;;;;;;;;;;5.44;60.60;98167.97;4429664;32;34004;-87
2022/04/02 05:46:15;;;;;;;;;;;;;;;5.54;60.08;98160.81;4428679;32;33018;-89
2022/04/02 05:48:43;;;;;;;;;;;;;;;5.62;60.21;98159.09;4417344;32;34457;-87
2022/04/02 05:51:11;;;;;;;;;;;;;;;5.60;60.25;98162.84;4391964;32;32800;-87
2022/04/02 05:53:38;;;;;;;;;;;;;;;5.55;60.14;98162.47;4417385;32;32806;-88
2022/04/02 05:56:06;;;;;;;;;;;;;;;5.59;60.03;98163.84;4428858;32;34636;-87
2022/04/02 05:58:35;;;;;;;;;;;;;;;5.44;60.18;98170.63;4416895;32;35262;-87
2022/04/02 06:01:28;;;;;;;;;;;;;;;5.63;59.87;98170.44;4404283;32;34745;-87
2022/04/02 06:03:56;;;;;;;;;;;;;;;5.66;60.34;98175.41;4430830;32;33486;-86
2022/04/02 06:06:24;;;;;;;;;;;;;;;5.45;60.44;98169.63;4416959;32;34488;-88
2022/04/02 06:08:51;;;;;;;;;;;;;;;5.72;59.61;98157.19;4430794;32;35755;-89
2022/04/02 06:11:24;;;;;;;;;;;;;;;5.30;60.53;98159.78;4417137;32;34225;-86
2022/04/02 06:13:51;;;;;;;;;;;;;;;5.68;60.28;98173.47;4414136;32;33236;-90
2022/04/02 06:16:28;;;;;;;;;;;;;;;5.67;60.49;98175.28;4405430;32;33498;-88
2022/04/02 06:19:00;;;;;;;;;;;;;;;5.52;60.64;98176.78;4404573;32;34587;-90
2022/04/02 06:21:27;;;;;;;;;;;;;;;5.66;60.37;98181.53;4416733;32;34725;-87
2022/04/02 06:23:55;;;;;;;;;;;;;;;5.75;60.25;98185.06;4403962;32;33374;-86
2022/04/02 06:26:22;;;;;;;;;;;;;;;6.02;59.04;98184.94;4403736;32;34015;-85
2022/04/02 06:28:50;;;;;;;;;;;;;;;5.89;59.51;98190.62;4430174;32;35700;-87
2022/04/02 06:31:18;;;;;;;;;;;;;;;6.17;58.61;98178.94;4416732;32;33413;-85
2022/04/02 06:33:46;;;;;;;;;;;;;;;6.45;58.29;98174.31;4418087;32;33897;-84
2022/04/02 06:36:16;;;;;;;;;;;;;;;6.40;58.76;98185.38;4418321;32;33129;-90
2022/04/02 06:38:44;;;;;;;;;;;;;;;6.46;57.70;98183.91;4417802;32;34629;-89
2022/04/02 06:41:11;;;;;;;;;;;;;;;6.42;58.71;98187.84;4417773;32;34300;-89
2022/04/02 06:43:39;;;;;;;;;;;;;;;6.37;58.09;98188.31;4432099;32;32842;-85
2022/04/02 06:46:07;;;;;;;;;;;;;;;6.40;57.13;98190.66;4405268;32;33895;-84
2022/04/02 06:48:34;;;;;;;;;;;;;;;6.50;56.27;98185.22;4431236;32;34551;-89
2022/04/02 06:51:06;;;;;;;;;;;;;;;6.18;56.77;98187.72;4431148;32;34931;-90
2022/04/02 06:53:34;;;;;;;;;;;;;;;6.53;57.88;98185.75;4429473;32;32637;-90
2022/04/02 06:56:01;;;;;;;;;;;;;;;6.09;59.13;98193.91;4415827;32;34670;-92
2022/04/02 06:58:30;;;;;;;;;;;;;;;6.49;58.70;98191.50;4416342;32;34555;-84
2022/04/02 07:00:58;;;;;;;;;;;;;;;6.77;57.39;98192.94;4428222;32;34032;-84
2022/04/02 07:03:26;;;;;;;;;;;;;;;6.82;56.60;98188.03;4416759;32;31541;-88
2022/04/02 07:05:53;;;;;;;;;;;;;;;6.99;57.38;98193.19;4403676;32;32379;-88
2022/04/02 07:08:21;;;;;;;;;;;;;;;6.70;56.23;98205.16;4414932;32;33570;-88
2022/04/02 07:10:49;;;;;;;;;;;;;;;6.82;56.58;98196.78;4430401;32;34829;-87
2022/04/02 07:13:16;;;;;;;;;;;;;;;6.91;56.40;98197.66;4429296;32;33596;-87
2022/04/02 07:15:45;;;;;;;;;;;;;;;7.00;57.66;98196.69;4415117;32;32747;-86
2022/04/02 07:18:12;;;;;;;;;;;;;;;7.34;56.69;98195.59;4414565;32;34106;-90
2022/04/02 07:20:39;;;;;;;;;;;;;;;7.40;55.50;98202.06;4428433;32;35037;-85
2022/04/02 07:23:09;;;;;;;;;;;;;;;7.55;54.98;98209.19;4428690;32;33786;-86
2022/04/02 07:25:38;;;;;;;;;;;;;;;7.39;54.46;98208.34;4416002;32;33908;-84
2022/04/02 07:28:07;;;;;;;;;;;;;;;7.62;54.25;98212.00;4403298;32;34262;-90
2022/04/02 07:30:37;;;;;;;;;;;;;;;7.64;55.21;98215.34;4404616;32;33336;-86
2022/04/02 07:33:05;;;;;;;;;;;;;;;7.58;53.44;98215.97;4431922;32;32988;-89
2022/04/02 07:35:38;;;;;;;;;;;;;;;7.68;53.70;98206.06;4431789;32;35039;-87
2022/04/02 07:38:09;;;;;;;;;;;;;;;7.93;55.13;98210.37;4432238;32;35524;-84
2022/04/02 07:40:40;;;;;;;;;;;;;;;8.01;53.53;98211.19;4430024;32;33341;-91
2022/04/02 07:43:16;;;;;;;;;;;;;;;8.32;53.44;98217.50;4417541;32;33469;-87
2022/04/02 07:45:47;;;;;;;;;;;;;;;8.41;52.56;98213.00;4431503;32;34685;-89
2022/04/02 07:48:15;;;;;;;;;;;;;;;8.65;53.05;98219.06;4428971;32;34600;-86
2022/04/02 07:50:44;;;;;;;;;;;;;;;8.43;52.30;98218.94;4403994;32;34644;-85
2022/04/02 07:53:22;;;;;;;;;;;;;;;8.56;52.11;98215.63;4416829;32;32351;-87
2022/04/02 07:55:50;;;;;;;;;;;;;;;8.63;51.71;98224.53;4430787;32;33321;-87
2022/04/02 07:58:19;;;;;;;;;;;;;;;8.37;53.96;98217.81;4429485;32;35142;-87
2022/04/02 08:00:49;;;;;;;;;;;;;;;8.64;52.68;98223.56;4431641;32;35197;-84
2022/04/02 08:03:17;;;;;;;;;;;;;;;8.55;52.98;98227.22;4429203;32;33721;-89
2022/04/02 08:05:45;;;;;;;;;;;;;;;8.56;52.64;98234.19;4416681;32;34146;-86
2022/04/02 08:08:12;;;;;;;;;;;;;;;8.49;51.85;98225.25;4428805;32;34770;-89
2022/04/02 08:10:46;;;;;;;;;;;;;;;8.52;52.61;98232.84;4428970;32;35151;-87
2022/04/02 08:13:15;;;;;;;;;;;;;;;8.42;52.40;98231.41;4428501;32;32285;-85
2022/04/02 08:15:44;;;;;;;;;;;;;;;8.27;53.11;98240.16;4417194;32;35302;-89
2022/04/02 08:18:14;;;;;;;;;;;;;;;8.48;52.81;98237.84;4417521;32;35287;-90
2022/04/02 08:20:42;;;;;;;;;;;;;;;8.55;53.18;98237.81;4418250;32;33375;-89
2022/04/02 08:23:09;;;;;;;;;;;;;;;8.70;52.60;98237.94;4431666;32;33588;-88
2022/04/02 08:25:38;;;;;;;;;;;;;;;8.44;53.01;98232.03;4417030;32;34604;-87
2022/04/02 08:28:20;;;;;;;;;;;;;;;8.59;52.88;98236.47;4403695;32;34697;-88
2022/04/02 08:30:51;;;;;;;;;;;;;;;8.57;52.27;98240.28;4416508;32;33086;-89
2022/04/02 08:33:29;;;;;;;;;;;;;;;8.86;52.90;98249.31;4403339;32;32565;-84
2022/04/02 08:36:06;;;;;;;;;;;;;;;9.07;52.61;98246.09;4403533;32;34138;-87
2022/04/02 08:38:46;;;;;;;;;;;;;;;9.22;52.02;98254.97;4417059;32;34410;-87
2022/04/02 08:41:33;;;;;;;;;;;;;;;9.31;51.31;98257.44;4417459;32;34461;-89
2022/04/02 08:44:21;;;;;;;;;;;;;;;8.96;51.21;98255.25;4430327;32;33197;-85
2022/04/02 08:46:57;;;;;;;;;;;;;;;9.41;50.87;98254.53;4430062;32;33455;-84
2022/04/02 08:49:44;;;;;;;;;;;;;;;9.44;51.02;98255.03;4390981;32;34252;-86
2022/04/02 08:52:14;;;;;;;;;;;;;;;9.31;51.62;98251.28;4430224;32;35403;-85
2022/04/02 08:55:00;;;;;;;;;;;;;;;9.44;50.57;98263.00;4429764;32;31570;-86
2022/04/02 08:57:30;;;;;;;;;;;;;;;9.50;50.43;98266.78;4430857;32;33332;-88
2022/04/02 09:00:05;;;;;;;;;;;;;;;9.62;51.07;98263.56;4403528;32;33263;-88
2022/04/02 09:02:45;;;;;;;;;;;;;;;9.75;50.19;98263.78;4416903;32;34463;-94
2022/04/02 09:05:33;;;;;;;;;;;;;;;9.86;48.83;98259.91;4417874;32;32987;-87
2022/04/02 09:08:20;;;;;;;;;;;;;;;9.66;49.88;98272.00;4416579;32;33421;-92
2022/04/02 09:11:06;;;;;;;;;;;;;;;9.88;48.57;98272.03;4416449;32;36078;-86
2022/04/02 09:13:37;;;;;;;;;;;;;;;9.74;49.89;98272.75;4416361;32;34829;-88
2022/04/02 09:16:05;;;;;;;;;;;;;;;9.73;49.45;98279.09;4430312;32;34159;-85
2022/04/02 09:18:32;;;;;;;;;;;;;;;9.65;50.09;98286.28;4416023;32;34247;-89
2022/04/02 09:21:01;;;;;;;;;;;;;;;9.44;49.32;98286.06;4429827;32;35316;-90
2022/04/02 09:23:50;;;;;;;;;;;;;;;9.48;50.28;98292.66;4415742;32;34381;-90
2022/04/02 09:26:37;;;;;;;;;;;;;;;9.39;50.35;98297.22;4429054;32;33873;-91
2022/04/02 09:29:07;;;;;;;;;;;;;;;9.61;51.32;98295.59;4416087;32;33744;-89
2022/04/02 09:31:35;;;;;;;;;;;;;;;9.85;48.97;98298.09;4428637;32;34740;-88
2022/04/02 09:34:08;;;;;;;;;;;;;;;9.80;49.76;98292.47;4429942;32;34458;-88
2022/04/02 09:36:59;;;;;;;;;;;;;;;10.06;50.22;98303.63;4428352;32;31857;-89
2022/04/02 09:39:29;;;;;;;;;;;;;;;10.08;48.33;98297.16;4429702;32;34912;-92
2022/04/02 09:41:57;;;;;;;;;;;;;;;9.89;48.37;98304.72;4402270;32;34525;-87
2022/04/02 09:44:29;;;;;;;;;;;;;;;10.27;47.87;98312.59;4429109;32;34669;-92
2022/04/02 09:47:18;;;;;;;;;;;;;;;10.40;48.77;98299.53;4415359;32;33387;-88
2022/04/02 09:49:49;;;;;;;;;;;;;;;10.24;48.31;98309.47;4422429;32;33366;-89
2022/04/02 09:52:17;;;;;;;;;;;;;;;10.08;48.86;98302.47;4428851;32;35332;-89
2022/04/02 09:54:46;;;;;;;;;;;;;;;10.21;48.14;98308.00;4427928;32;35324;-91
2022/04/02 09:57:18;;;;;;;;;;;;;;;10.30;48.00;98309.59;4427450;32;33264;-93
2022/04/02 09:59:51;;;;;;;;;;;;;;;9.94;49.53;98318.31;4427659;32;34241;-89
2022/04/02 10:02:42;;;;;;;;;;;;;;;10.25;48.26;98321.75;4427448;32;35995;-91
2022/04/02 10:05:12;;;;;;;;;;;;;;;10.24;49.35;98331.56;4380458;32;33755;-88
2022/04/02 10:07:51;;;;;;;;;;;;;;;10.08;48.59;98330.84;4368741;32;32450;-86
2022/04/02 10:10:25;;;;;;;;;;;;;;;10.33;47.86;98321.69;4368506;32;32253;-89
2022/04/02 10:12:53;;;;;;;;;;;;;;;10.28;47.98;98318.75;4368307;32;35488;-85
2022/04/02 10:15:21;;;;;;;;;;;;;;;9.79;48.58;98323.53;4368129;32;35471;-89
2022/04/02 10:17:54;;;;;;;;;;;;;;;9.98;49.02;98331.06;4381341;32;32184;-86
2022/04/02 10:20:28;;;;;;;;;;;;;;;9.92;48.94;98333.59;4381791;32;34315;-86
2022/04/02 10:23:06;;;;;;;;;;;;;;;10.04;48.87;98333.06;4369742;32;33497;-86
2022/04/02 10:26:10;;;;;;;;;;;;;;;10.10;48.48;98334.97;4370500;32;34451;-86
2022/04/02 10:28:43;;;;;;;;;;;;;;;9.93;47.74;98328.09;4381482;32;33031;-86
2022/04/02 10:31:11;;;;;;;;;;;;;;;9.79;48.50;98330.66;4381670;32;34762;-88
2022/04/02 10:33:38;;;;;;;;;;;;;;;9.57;49.26;98327.00;4367910;32;35231;-88
2022/04/02 10:36:10;;;;;;;;;;;;;;;9.90;49.30;98324.97;4369773;32;34802;-89
2022/04/02 10:38:38;;;;;;;;;;;;;;;9.67;49.59;98322.28;4382293;32;33664;-87
2022/04/02 10:41:09;;;;;;;;;;;;;;;10.00;48.87;98326.38;4370062;32;33299;-88
2022/04/02 10:43:56;;;;;;;;;;;;;;;10.08;48.91;98322.88;4430478;32;35271;-88
2022/04/02 10:46:27;;;;;;;;;;;;;;;10.29;48.25;98331.06;4431118;32;34611;-88
2022/04/02 10:49:07;;;;;;;;;;;;;;;10.35;49.13;98330.31;4431278;32;33670;-89
2022/04/02 10:51:36;;;;;;;;;;;;;;;10.26;48.73;98329.56;4418784;32;32756;-93
2022/04/02 10:54:07;;;;;;;;;;;;;;;10.21;48.54;98334.56;4432754;32;34215;-86
2022/04/02 10:56:38;;;;;;;;;;;;;;;10.19;49.24;98339.25;4417865;32;35257;-87
2022/04/02 10:59:08;;;;;;;;;;;;;;;10.01;48.76;98338.66;4417331;32;32439;-88
2022/04/02 11:01:38;;;;;;;;;;;;;;;10.04;48.45;98343.69;4432051;32;34748;-92
2022/04/02 11:04:19;;;;;;;;;;;;;;;10.10;48.19;98350.13;4415640;32;34216;-86
2022/04/02 11:06:49;;;;;;;;;;;;;;;9.87;48.76;98349.22;4405740;32;33858;-88
2022/04/02 11:09:24;;;;;;;;;;;;;;;9.69;49.79;98360.09;4430950;32;33690;-86
2022/04/02 11:11:52;;;;;;;;;;;;;;;9.77;49.60;98360.06;4417866;32;33469;-86
2022/04/02 11:14:20;;;;;;;;;;;;;;;9.68;50.14;98360.28;4429742;32;35330;-90
2022/04/02 11:16:48;;;;;;;;;;;;;;;9.74;49.54;98360.41;4417022;32;34269;-86
2022/04/02 11:22:03;;;;;;;;;;;;;;;9.55;50.42;98358.16;4418883;32;33684;-84
2022/04/02 11:24:31;;;;;;;;;;;;;;;9.65;50.23;98360.63;4416665;32;34931;-85
2022/04/02 11:26:58;;;;;;;;;;;;;;;9.56;49.94;98361.66;4416647;32;34470;-85
2022/04/02 11:29:26;;;;;;;;;;;;;;;9.55;50.15;98363.47;4391498;32;31406;-84
2022/04/02 11:31:53;;;;;;;;;;;;;;;9.46;51.12;98361.03;4428851;32;33858;-85
2022/04/02 11:34:20;;;;;;;;;;;;;;;9.60;50.94;98358.50;4430125;32;35250;-86
2022/04/02 11:36:49;;;;;;;;;;;;;;;9.59;50.79;98361.31;4429490;32;34485;-84
2022/04/02 11:39:24;;;;;;;;;;;;;;;9.61;51.21;98364.59;4404017;32;31555;-89
2022/04/02 11:41:53;;;;;;;;;;;;;;;9.65;51.07;98363.28;4403958;32;33916;-84
2022/04/02 11:44:20;;;;;;;;;;;;;;;9.71;49.07;98366.06;4429020;32;35890;-89
2022/04/02 11:46:51;;;;;;;;;;;;;;;9.33;50.14;98363.37;4428974;32;35437;-84
2022/04/02 11:49:29;;;;;;;;;;;;;;;9.68;49.65;98374.38;4429678;32;33751;-83
2022/04/02 11:52:00;;;;;;;;;;;;;;;9.71;50.03;98366.06;4391204;32;32348;-84
2022/04/02 11:54:28;;;;;;;;;;;;;;;9.61;50.76;98365.44;4416280;32;35222;-87
2022/04/02 11:57:08;;;;;;;;;;;;;;;8.97;51.86;98370.97;4403268;32;34586;-90
2022/04/02 11:59:49;;;;;;;;;;;;;;;9.61;49.86;98372.56;4417106;32;34245;-88
2022/04/02 12:02:35;;;;;;;;;;;;;;;9.47;50.85;98370.66;4429980;32;33602;-89
2022/04/02 12:05:06;;;;;;;;;;;;;;;9.64;49.80;98370.41;4416437;32;35766;-85
2022/04/02 12:07:43;;;;;;;;;;;;;;;9.67;50.01;98372.75;4428802;32;34377;-86
2022/04/02 12:10:32;;;;;;;;;;;;;;;9.74;50.47;98367.56;4394457;32;32865;-87
2022/04/02 12:13:02;;;;;;;;;;;;;;;9.26;52.89;98365.91;4403161;32;33813;-87
2022/04/02 12:15:30;;;;;;;;;;;;;;;9.58;51.20;98367.63;4416328;32;34281;-87
2022/04/02 12:18:08;;;;;;;;;;;;;;;9.43;52.71;98375.47;4429855;32;34988;-86
2022/04/02 12:20:36;;;;;;;;;;;;;;;9.64;52.28;98369.59;4428929;32;32586;-90
2022/04/02 12:23:07;;;;;;;;;;;;;;;9.62;53.07;98372.41;4430871;32;32866;-87
2022/04/02 12:25:34;;;;;;;;;;;;;;;9.24;53.71;98367.91;4416379;32;34785;-86
2022/04/02 12:28:12;;;;;;;;;;;;;;;9.60;53.44;98362.97;4428735;32;34032;-90
2022/04/02 12:30:46;;;;;;;;;;;;;;;9.31;52.56;98368.88;4415804;32;31669;-88
2022/04/02 12:33:23;;;;;;;;;;;;;;;9.24;53.27;98372.38;4429601;32;34771;-86
2022/04/02 12:35:57;;;;;;;;;;;;;;;9.01;55.71;98371.44;4415865;32;34328;-85
2022/04/02 12:38:29;;;;;;;;;;;;;;;9.46;54.55;98384.94;4429831;32;34741;-89
2022/04/02 12:40:57;;;;;;;;;;;;;;;9.48;52.68;98381.12;4390899;32;32097;-86
2022/04/02 12:43:28;;;;;;;;;;;;;;;9.43;54.14;98382.59;4415709;32;32765;-86
2022/04/02 12:45:56;;;;;;;;;;;;;;;9.38;53.20;98393.72;4415828;32;35038;-85
2022/04/02 12:48:25;;;;;;;;;;;;;;;9.27;54.74;98382.66;4414833;32;34250;-87
2022/04/02 12:50:55;;;;;;;;;;;;;;;8.92;55.55;98383.91;4402787;32;32308;-90
2022/04/02 12:53:26;;;;;;;;;;;;;;;9.39;53.14;98379.47;4415707;32;33316;-85
2022/04/02 12:55:54;;;;;;;;;;;;;;;9.45;54.68;98383.28;4401943;32;33622;-90
2022/04/02 12:58:38;;;;;;;;;;;;;;;9.47;54.41;98382.09;4414925;32;34605;-90
2022/04/02 13:01:15;;;;;;;;;;;;;;;9.40;54.23;98377.63;4415840;32;33499;-87
2022/04/02 13:03:46;;;;;;;;;;;;;;;9.49;53.82;98385.41;4414991;32;32421;-87
2022/04/02 13:06:15;;;;;;;;;;;;;;;8.86;57.26;98384.56;4427735;32;35100;-86
2022/04/02 13:09:01;;;;;;;;;;;;;;;9.04;55.43;98382.56;4415722;32;34150;-84
2022/04/02 13:11:48;;;;;;;;;;;;;;;9.01;56.50;98382.06;4430254;32;34233;-87
2022/04/02 13:14:15;;;;;;;;;;;;;;;9.16;55.48;98383.84;4430494;32;33703;-89
2022/04/02 13:16:45;;;;;;;;;;;;;;;9.20;57.03;98387.00;4430039;32;35326;-85
2022/04/02 13:22:08;;;;;;;;;;;;;;;8.99;56.61;98397.31;4430125;32;34394;-83
2022/04/02 13:24:44;;;;;;;;;;;;;;;9.09;56.41;98392.66;4428835;32;34562;-85
2022/04/02 13:27:12;;;;;;;;;;;;;;;9.00;55.71;98397.12;4390822;32;34369;-89
2022/04/02 13:29:42;;;;;;;;;;;;;;;8.96;56.83;98397.62;4428103;32;34382;-87